createdAt,value
2019-05-11T00:00:55.130Z,100.00
2019-05-11T00:04:02.942Z,100.00
2019-05-11T00:07:10.617Z,100.00
2019-05-11T00:10:18.419Z,99.67
2019-05-11T00:13:25.722Z,100.00
2019-05-11T00:16:33.108Z,100.00
2019-05-11T00:19:40.326Z,100.00
2019-05-11T00:22:47.845Z,100.00
2019-05-11T00:25:55.615Z,100.00
2019-05-11T00:29:03.012Z,100.00
2019-05-11T00:32:10.242Z,100.00
2019-05-11T00:35:17.553Z,100.00
2019-05-11T00:38:24.754Z,100.00
2019-05-11T00:41:31.979Z,100.00
2019-05-11T00:44:39.850Z,100.00
2019-05-11T00:47:47.347Z,100.00
2019-05-11T00:50:54.725Z,100.00
2019-05-11T00:54:02.378Z,100.00
2019-05-11T00:57:09.791Z,100.00
2019-05-11T01:00:18.003Z,100.00
2019-05-11T01:03:25.418Z,100.00
2019-05-11T01:06:32.736Z,100.00
2019-05-11T01:09:39.929Z,100.00
2019-05-11T01:12:47.237Z,100.00
2019-05-11T01:15:55.003Z,100.00
2019-05-11T01:19:02.917Z,100.00
2019-05-11T01:22:10.323Z,100.00
2019-05-11T01:25:17.642Z,100.00
2019-05-11T01:28:25.083Z,100.00
2019-05-11T01:31:32.615Z,100.00
2019-05-11T01:34:39.938Z,100.00
2019-05-11T01:37:47.614Z,100.00
2019-05-11T01:40:58.722Z,100.00
2019-05-11T01:44:04.623Z,100.00
2019-05-11T01:47:11.905Z,100.00
2019-05-11T01:50:20.024Z,100.00
2019-05-11T01:53:27.714Z,100.00
2019-05-11T01:56:35.105Z,100.00
2019-05-11T01:59:42.313Z,100.00
2019-05-11T02:02:50.066Z,100.00
2019-05-11T02:05:57.925Z,100.00
2019-05-11T02:09:06.316Z,100.00
2019-05-11T02:12:13.636Z,100.00
2019-05-11T02:15:21.192Z,100.00
2019-05-11T02:21:43.561Z,100.00
2019-05-11T02:24:50.946Z,100.00
2019-05-11T02:27:58.186Z,100.00
2019-05-11T02:31:05.424Z,100.00
2019-05-11T02:34:13.041Z,100.00
2019-05-11T02:37:20.337Z,100.00
2019-05-11T02:40:27.817Z,100.00
2019-05-11T02:43:35.221Z,100.00
2019-05-11T02:46:42.611Z,100.00
2019-05-11T02:49:50.628Z,100.00
2019-05-11T02:52:58.960Z,100.00
2019-05-11T02:56:06.661Z,100.00
2019-05-11T02:59:14.210Z,100.00
2019-05-11T03:02:21.432Z,100.00
2019-05-11T03:05:31.685Z,100.00
2019-05-11T03:08:39.731Z,100.00
2019-05-11T03:11:55.336Z,100.00
2019-05-11T03:14:56.532Z,100.00
2019-05-11T03:18:04.291Z,100.00
2019-05-11T03:21:11.446Z,100.00
2019-05-11T03:24:18.634Z,100.00
2019-05-11T03:27:25.963Z,100.00
2019-05-11T03:30:33.348Z,100.00
2019-05-11T03:33:40.844Z,100.00
2019-05-11T03:36:48.254Z,100.00
2019-05-11T03:39:55.480Z,100.00
2019-05-11T03:43:03.074Z,100.00
2019-05-11T03:46:10.265Z,99.98
2019-05-11T03:49:17.760Z,99.59
2019-05-11T03:52:25.184Z,99.24
2019-05-11T03:55:32.861Z,98.65
2019-05-11T03:58:40.170Z,98.21
2019-05-11T04:01:47.708Z,98.51
2019-05-11T04:04:56.136Z,98.87
2019-05-11T04:08:03.444Z,99.10
2019-05-11T04:11:10.894Z,100.00
2019-05-11T04:14:18.059Z,100.00
2019-05-11T04:17:25.483Z,100.00
2019-05-11T04:20:32.824Z,99.27
2019-05-11T04:23:40.505Z,98.34
2019-05-11T04:26:48.014Z,97.92
2019-05-11T04:29:56.032Z,97.04
2019-05-11T04:33:03.670Z,97.04
2019-05-11T04:36:11.003Z,98.11
2019-05-11T04:39:18.296Z,97.89
2019-05-11T04:42:25.587Z,97.66
2019-05-11T04:45:33.233Z,97.90
2019-05-11T04:48:40.515Z,98.14
2019-05-11T04:51:48.017Z,99.36
2019-05-11T04:54:55.411Z,99.13
2019-05-11T04:58:02.899Z,99.43
2019-05-11T05:01:10.514Z,98.93
2019-05-11T05:04:18.042Z,100.00
2019-05-11T05:07:25.226Z,99.85
2019-05-11T05:10:32.637Z,100.00
2019-05-11T05:13:40.247Z,100.00
2019-05-11T05:16:48.465Z,100.00
2019-05-11T05:19:55.860Z,100.00
2019-05-11T05:23:03.576Z,99.59
2019-05-11T05:26:11.259Z,98.71
2019-05-11T05:29:18.866Z,97.84
2019-05-11T05:32:27.802Z,98.12
2019-05-11T05:35:35.895Z,100.00
2019-05-11T05:38:43.346Z,99.81
2019-05-11T05:41:57.329Z,100.00
2019-05-11T05:45:06.351Z,99.80
2019-05-11T05:48:13.743Z,98.51
2019-05-11T05:51:21.370Z,99.52
2019-05-11T05:54:28.667Z,100.00
2019-05-11T05:57:35.898Z,100.00
2019-05-11T06:00:43.407Z,100.00
2019-05-11T06:03:50.788Z,99.49
2019-05-11T06:06:58.191Z,99.02
2019-05-11T06:10:06.372Z,99.82
2019-05-11T06:13:13.780Z,99.96
2019-05-11T06:16:21.271Z,100.00
2019-05-11T06:19:28.585Z,100.00
2019-05-11T06:22:36.434Z,100.00
2019-05-11T06:25:43.759Z,100.00
2019-05-11T06:28:51.231Z,100.00
2019-05-11T06:32:00.381Z,100.00
2019-05-11T06:35:10.451Z,100.00
2019-05-11T06:38:17.738Z,99.96
2019-05-11T06:41:25.511Z,100.00
2019-05-11T06:44:32.983Z,98.78
2019-05-11T06:47:40.707Z,99.83
2019-05-11T06:50:48.127Z,100.00
2019-05-11T06:53:55.699Z,100.00
2019-05-11T06:57:03.398Z,100.00
2019-05-11T07:00:11.375Z,100.00
2019-05-11T07:03:18.774Z,100.00
2019-05-11T07:06:30.127Z,100.00
2019-05-11T07:09:35.566Z,100.00
2019-05-11T07:12:42.869Z,100.00
2019-05-11T07:15:50.422Z,100.00
2019-05-11T07:18:57.899Z,100.00
2019-05-11T07:22:05.403Z,100.00
2019-05-11T07:25:13.025Z,100.00
2019-05-11T07:28:20.204Z,98.17
2019-05-11T07:31:27.396Z,95.07
2019-05-11T07:34:34.802Z,93.41
2019-05-11T07:37:42.018Z,94.54
2019-05-11T07:40:49.262Z,89.80
2019-05-11T07:43:58.779Z,88.18
2019-05-11T07:47:07.942Z,87.99
2019-05-11T07:50:17.939Z,89.31
2019-05-11T07:53:24.897Z,85.93
2019-05-11T07:56:32.617Z,85.00
2019-05-11T07:59:40.000Z,77.81
2019-05-11T08:02:48.111Z,78.09
2019-05-11T08:05:58.056Z,74.30
2019-05-11T08:09:08.321Z,77.84
2019-05-11T08:12:15.475Z,79.12
2019-05-11T08:15:22.896Z,76.84
2019-05-11T08:18:30.182Z,77.45
2019-05-11T08:21:38.875Z,79.16
2019-05-11T08:24:48.145Z,78.79
2019-05-11T08:27:55.636Z,78.26
2019-05-11T08:31:03.363Z,78.51
2019-05-11T08:34:11.063Z,78.39
2019-05-11T08:37:18.895Z,79.11
2019-05-11T08:40:28.768Z,79.22
2019-05-11T08:43:38.689Z,78.75
2019-05-11T08:46:47.882Z,77.55
2019-05-11T08:49:55.018Z,75.88
2019-05-11T08:53:02.523Z,74.70
2019-05-11T08:56:13.156Z,75.21
2019-05-11T08:59:19.217Z,75.98
2019-05-11T09:02:27.836Z,75.61
2019-05-11T09:05:35.429Z,76.04
2019-05-11T09:08:42.725Z,76.30
2019-05-11T09:11:49.950Z,77.99
2019-05-11T09:14:58.130Z,77.42
2019-05-11T09:18:08.271Z,75.58
2019-05-11T09:21:15.759Z,76.65
2019-05-11T09:24:23.451Z,74.03
2019-05-11T09:27:31.679Z,72.66
2019-05-11T09:30:39.431Z,71.78
2019-05-11T09:33:47.970Z,73.43
2019-05-11T09:36:58.658Z,75.08
2019-05-11T09:40:07.876Z,72.18
2019-05-11T09:43:17.865Z,70.02
2019-05-11T09:46:27.911Z,71.39
2019-05-11T09:49:47.096Z,73.12
2019-05-11T09:52:48.996Z,75.07
2019-05-11T09:55:58.663Z,75.58
2019-05-11T09:59:08.575Z,75.56
2019-05-11T10:02:20.425Z,75.67
2019-05-11T10:05:28.429Z,74.81
2019-05-11T10:08:35.344Z,72.41
2019-05-11T10:11:43.175Z,71.94
2019-05-11T10:14:50.397Z,70.38
2019-05-11T10:17:59.022Z,70.25
2019-05-11T10:21:08.143Z,68.74
2019-05-11T10:24:17.804Z,67.20
2019-05-11T10:27:28.007Z,69.22
2019-05-11T10:30:38.388Z,68.42
2019-05-11T10:33:48.835Z,67.82
2019-05-11T10:36:58.017Z,68.75
2019-05-11T10:40:06.515Z,69.16
2019-05-11T10:43:14.174Z,70.75
2019-05-11T10:46:23.583Z,71.38
2019-05-11T10:49:31.641Z,71.80
2019-05-11T10:52:39.966Z,72.07
2019-05-11T10:55:59.405Z,72.47
2019-05-11T10:59:18.726Z,73.30
2019-05-11T11:02:27.766Z,70.89
2019-05-11T11:05:38.269Z,71.98
2019-05-11T11:08:45.791Z,72.11
2019-05-11T11:11:53.116Z,71.82
2019-05-11T11:15:01.200Z,75.37
2019-05-11T11:18:09.007Z,76.94
2019-05-11T11:21:22.098Z,76.78
2019-05-11T11:24:28.718Z,79.18
2019-05-11T11:27:38.107Z,80.03
2019-05-11T11:30:47.979Z,81.71
2019-05-11T11:33:56.222Z,84.33
2019-05-11T11:37:04.763Z,88.16
2019-05-11T11:40:14.520Z,89.28
2019-05-11T11:43:23.832Z,89.66
2019-05-11T11:46:31.659Z,89.35
2019-05-11T11:49:39.918Z,86.61
2019-05-11T11:52:48.432Z,82.36
2019-05-11T11:55:56.172Z,83.21
2019-05-11T11:59:03.763Z,81.27
2019-05-11T12:02:11.790Z,82.16
2019-05-11T12:05:20.126Z,79.94
2019-05-11T12:08:28.936Z,79.18
2019-05-11T12:11:38.080Z,78.99
2019-05-11T12:14:48.035Z,74.33
2019-05-11T12:17:58.583Z,76.98
2019-05-11T12:21:08.005Z,76.85
2019-05-11T12:24:15.750Z,78.40
2019-05-11T12:27:23.168Z,80.67
2019-05-11T12:30:30.986Z,81.36
2019-05-11T12:33:38.774Z,83.41
2019-05-11T12:36:48.003Z,84.91
2019-05-11T12:39:58.284Z,86.05
2019-05-11T12:43:08.153Z,84.98
2019-05-11T12:46:18.620Z,83.47
2019-05-11T12:49:25.676Z,85.22
2019-05-11T12:52:33.397Z,86.60
2019-05-11T12:55:41.336Z,88.33
2019-05-11T12:58:50.409Z,90.26
2019-05-11T13:01:59.281Z,95.33
2019-05-11T13:05:08.662Z,97.20
2019-05-11T13:08:18.473Z,99.69
2019-05-11T13:11:28.444Z,100.00
2019-05-11T13:14:38.165Z,100.00
2019-05-11T13:17:48.962Z,100.00
2019-05-11T13:20:58.799Z,100.00
2019-05-11T13:24:08.370Z,100.00
2019-05-11T13:27:17.940Z,99.83
2019-05-11T13:30:27.796Z,98.17
2019-05-11T13:33:35.633Z,96.92
2019-05-11T13:36:44.154Z,98.59
2019-05-11T13:39:52.358Z,98.11
2019-05-11T13:43:00.671Z,96.48
2019-05-11T13:46:08.877Z,95.57
2019-05-11T13:49:17.848Z,92.68
2019-05-11T13:52:28.535Z,89.51
2019-05-11T13:55:35.939Z,89.20
2019-05-11T13:58:43.809Z,91.02
2019-05-11T14:01:51.720Z,89.33
2019-05-11T14:04:59.501Z,89.37
2019-05-11T14:08:08.119Z,88.52
2019-05-11T14:11:18.148Z,90.66
2019-05-11T14:14:25.973Z,89.74
2019-05-11T14:17:33.746Z,90.15
2019-05-11T14:20:41.208Z,91.58
2019-05-11T14:23:48.786Z,93.50
2019-05-11T14:26:57.858Z,94.06
2019-05-11T14:30:08.555Z,95.89
2019-05-11T14:33:18.033Z,98.04
2019-05-11T14:36:28.047Z,94.35
2019-05-11T14:39:35.604Z,91.04
2019-05-11T14:42:43.631Z,91.07
2019-05-11T14:45:51.523Z,86.78
2019-05-11T14:49:00.725Z,85.64
2019-05-11T14:52:08.612Z,87.51
2019-05-11T14:55:18.412Z,87.85
2019-05-11T14:58:27.988Z,89.56
2019-05-11T15:01:38.183Z,91.33
2019-05-11T15:04:48.225Z,92.05
2019-05-11T15:07:55.052Z,92.83
2019-05-11T15:11:03.335Z,93.73
2019-05-11T15:14:11.207Z,93.64
2019-05-11T15:17:18.943Z,92.11
2019-05-11T15:20:28.489Z,91.35
2019-05-11T15:23:37.840Z,90.73
2019-05-11T15:26:45.739Z,89.63
2019-05-11T15:29:53.925Z,89.61
2019-05-11T15:33:02.485Z,89.30
2019-05-11T15:36:10.879Z,87.30
2019-05-11T15:39:18.657Z,87.26
2019-05-11T15:42:28.655Z,87.21
2019-05-11T15:45:38.025Z,86.13
2019-05-11T15:48:56.682Z,84.64
2019-05-11T15:51:57.770Z,82.38
2019-05-11T15:55:08.077Z,80.93
2019-05-11T15:58:21.489Z,81.27
2019-05-11T16:01:25.928Z,82.05
2019-05-11T16:04:33.927Z,82.40
2019-05-11T16:07:41.147Z,80.54
2019-05-11T16:10:49.128Z,80.91
2019-05-11T16:13:58.550Z,81.63
2019-05-11T16:17:05.872Z,81.20
2019-05-11T16:20:14.206Z,82.19
2019-05-11T16:23:21.794Z,82.72
2019-05-11T16:26:29.117Z,83.04
2019-05-11T16:29:38.473Z,83.01
2019-05-11T16:32:47.977Z,84.44
2019-05-11T16:35:55.052Z,84.32
2019-05-11T16:39:09.990Z,84.19
2019-05-11T16:42:15.429Z,85.15
2019-05-11T16:45:24.027Z,84.85
2019-05-11T16:48:31.786Z,84.99
2019-05-11T16:51:39.356Z,84.61
2019-05-11T16:54:47.760Z,84.88
2019-05-11T16:57:58.594Z,85.24
2019-05-11T17:01:08.367Z,84.47
2019-05-11T17:04:16.408Z,84.22
2019-05-11T17:07:23.902Z,83.91
2019-05-11T17:10:31.307Z,82.58
2019-05-11T17:13:39.155Z,83.27
2019-05-11T17:16:48.171Z,83.80
2019-05-11T17:19:58.769Z,83.79
2019-05-11T17:23:05.888Z,82.48
2019-05-11T17:26:13.602Z,82.75
2019-05-11T17:29:21.417Z,81.62
2019-05-11T17:32:29.464Z,82.26
2019-05-11T17:35:37.059Z,82.70
2019-05-11T17:38:44.595Z,82.89
2019-05-11T17:41:52.071Z,83.16
2019-05-11T17:44:59.657Z,83.24
2019-05-11T17:48:08.472Z,83.65
2019-05-11T17:51:21.725Z,84.30
2019-05-11T17:54:28.305Z,83.99
2019-05-11T17:57:38.089Z,84.68
2019-05-11T18:00:45.084Z,84.99
2019-05-11T18:03:53.401Z,85.33
2019-05-11T18:07:01.176Z,85.68
2019-05-11T18:10:09.080Z,85.36
2019-05-11T18:13:17.193Z,86.36
2019-05-11T18:16:24.590Z,86.64
2019-05-11T18:19:32.254Z,86.57
2019-05-11T18:22:39.774Z,86.41
2019-05-11T18:25:48.069Z,86.68
2019-05-11T18:28:55.713Z,87.56
2019-05-11T18:32:03.783Z,88.32
2019-05-11T18:35:11.614Z,86.86
2019-05-11T18:38:19.116Z,88.12
2019-05-11T18:41:28.253Z,88.11
2019-05-11T18:44:37.933Z,88.15
2019-05-11T18:47:48.325Z,87.34
2019-05-11T18:50:58.871Z,88.05
2019-05-11T18:54:08.605Z,88.09
2019-05-11T19:00:19.882Z,87.45
2019-05-11T19:03:28.307Z,86.85
2019-05-11T19:06:37.843Z,86.69
2019-05-11T19:09:45.588Z,86.78
2019-05-11T19:12:53.924Z,86.89
2019-05-11T19:16:01.990Z,88.14
2019-05-11T19:19:10.186Z,87.46
2019-05-11T19:22:18.485Z,88.75
2019-05-11T19:25:26.416Z,88.38
2019-05-11T19:28:34.746Z,88.66
2019-05-11T19:31:42.519Z,89.64
2019-05-11T19:34:50.284Z,90.48
2019-05-11T19:37:58.130Z,89.85
2019-05-11T19:41:07.887Z,91.12
2019-05-11T19:44:18.527Z,90.39
2019-05-11T19:47:25.377Z,90.25
2019-05-11T19:50:32.783Z,89.08
2019-05-11T19:53:40.637Z,89.97
2019-05-11T19:56:51.770Z,89.34
2019-05-11T19:59:58.379Z,89.42
2019-05-11T20:03:08.842Z,89.69
2019-05-11T20:06:15.651Z,90.06
2019-05-11T20:09:23.062Z,90.01
2019-05-11T20:12:31.048Z,89.14
2019-05-11T20:15:38.548Z,90.09
2019-05-11T20:18:46.866Z,90.38
2019-05-11T20:21:54.685Z,90.06
2019-05-11T20:25:02.572Z,90.70
2019-05-11T20:28:10.074Z,91.21
2019-05-11T20:31:18.352Z,92.65
2019-05-11T20:34:28.280Z,90.72
2019-05-11T20:37:38.417Z,91.46
2019-05-11T20:40:48.339Z,91.79
2019-05-11T20:43:55.256Z,92.15
2019-05-11T20:47:02.903Z,92.33
2019-05-11T20:50:10.617Z,92.43
2019-05-11T20:53:18.265Z,92.73
2019-05-11T20:56:28.278Z,92.37
2019-05-11T20:59:35.452Z,93.42
2019-05-11T21:02:42.987Z,93.07
2019-05-11T21:05:50.571Z,92.84
2019-05-11T21:08:57.860Z,91.42
2019-05-11T21:12:07.933Z,92.85
2019-05-11T21:15:16.419Z,92.65
2019-05-11T21:18:23.854Z,91.33
2019-05-11T21:21:46.039Z,91.40
2019-05-11T21:24:40.948Z,90.95
2019-05-11T21:27:48.834Z,91.78
2019-05-11T21:30:58.397Z,91.40
2019-05-11T21:34:08.047Z,92.18
2019-05-11T21:37:15.252Z,92.97
2019-05-11T21:40:22.696Z,92.94
2019-05-11T21:43:30.015Z,94.91
2019-05-11T21:46:38.842Z,94.92
2019-05-11T21:49:48.509Z,95.83
2019-05-11T21:52:55.915Z,95.57
2019-05-11T21:56:03.587Z,95.73
2019-05-11T21:59:10.928Z,96.80
2019-05-11T22:02:18.651Z,97.62
2019-05-11T22:05:28.353Z,97.03
2019-05-11T22:08:35.792Z,96.88
2019-05-11T22:11:43.295Z,97.14
2019-05-11T22:14:50.605Z,97.22
2019-05-11T22:17:58.572Z,97.69
2019-05-11T22:21:08.454Z,97.04
2019-05-11T22:24:17.760Z,97.97
2019-05-11T22:27:24.792Z,98.91
2019-05-11T22:30:32.526Z,98.30
2019-05-11T22:33:40.259Z,98.12
2019-05-11T22:36:47.996Z,98.26
2019-05-11T22:39:57.688Z,99.26
2019-05-11T22:43:04.794Z,98.14
2019-05-11T22:46:12.462Z,97.87
2019-05-11T22:49:19.648Z,98.62
2019-05-11T22:52:36.110Z,99.06
2019-05-11T22:55:38.249Z,99.70
2019-05-11T22:58:49.693Z,99.36
2019-05-11T23:01:56.214Z,100.00
2019-05-11T23:05:04.066Z,100.00
2019-05-11T23:08:12.387Z,100.00
2019-05-11T23:11:20.333Z,100.00
2019-05-11T23:14:28.286Z,100.00
2019-05-11T23:17:38.462Z,100.00
2019-05-11T23:20:47.475Z,100.00
2019-05-11T23:23:54.451Z,100.00
2019-05-11T23:27:01.993Z,100.00
2019-05-11T23:30:10.125Z,100.00
2019-05-11T23:33:18.397Z,100.00
2019-05-11T23:36:28.013Z,100.00
2019-05-11T23:39:35.207Z,100.00
2019-05-11T23:42:42.392Z,100.00
2019-05-11T23:45:49.812Z,100.00
2019-05-11T23:48:58.101Z,100.00
2019-05-11T23:52:07.654Z,100.00
2019-05-11T23:55:18.691Z,100.00
2019-05-11T23:58:28.125Z,100.00
